createdAt,value
2024-05-09T00:00:44.486Z,102720.59
2024-05-09T00:03:12.670Z,102710.03
2024-05-09T00:05:41.558Z,102715.34
2024-05-09T00:08:10.597Z,102704.97
2024-05-09T00:10:39.898Z,102708.34
2024-05-09T00:13:09.591Z,102708.34
2024-05-09T00:15:37.725Z,102703.16
2024-05-09T00:18:07.512Z,102705.72
2024-05-09T00:20:39.598Z,102700.56
2024-05-09T00:23:10.753Z,102698.00
2024-05-09T00:25:39.379Z,102699.03
2024-05-09T00:28:07.108Z,102688.56
2024-05-09T00:30:36.934Z,102682.38
2024-05-09T00:33:07.011Z,102683.22
2024-05-09T00:35:36.147Z,102691.91
2024-05-09T00:38:04.409Z,102681.50
2024-05-09T00:40:40.131Z,102679.75
2024-05-09T00:43:12.190Z,102680.69
2024-05-09T00:45:40.866Z,102676.41
2024-05-09T00:48:11.581Z,102677.25
2024-05-09T00:50:42.381Z,102682.56
2024-05-09T00:53:15.763Z,102680.91
2024-05-09T00:55:44.387Z,102676.47
2024-05-09T00:58:15.978Z,102674.91
2024-05-09T01:00:44.404Z,102675.78
2024-05-09T01:03:14.059Z,102680.13
2024-05-09T01:05:43.925Z,102683.63
2024-05-09T01:08:13.202Z,102681.91
2024-05-09T01:10:44.962Z,102681.97
2024-05-09T01:13:14.000Z,102676.72
2024-05-09T01:15:42.192Z,102678.47
2024-05-09T01:18:12.439Z,102676.88
2024-05-09T01:20:43.959Z,102675.06
2024-05-09T01:23:15.246Z,102678.56
2024-05-09T01:25:45.132Z,102679.50
2024-05-09T01:28:13.415Z,102677.75
2024-05-09T01:30:41.094Z,102676.00
2024-05-09T01:33:10.732Z,102670.72
2024-05-09T01:35:42.076Z,102655.84
2024-05-09T01:38:13.902Z,102661.09
2024-05-09T01:40:43.352Z,102663.66
2024-05-09T01:43:12.035Z,102654.94
2024-05-09T01:45:40.875Z,102650.59
2024-05-09T01:48:10.158Z,102656.72
2024-05-09T01:50:41.706Z,102650.63
2024-05-09T01:53:13.171Z,102656.66
2024-05-09T01:55:41.461Z,102660.03
2024-05-09T01:58:09.881Z,102653.88
2024-05-09T02:00:41.359Z,102653.69
2024-05-09T02:03:15.165Z,102648.44
2024-05-09T02:05:47.170Z,102646.59
2024-05-09T02:08:18.116Z,102649.28
2024-05-09T02:10:53.145Z,102653.56
2024-05-09T02:13:20.933Z,102648.28
2024-05-09T02:15:52.463Z,102643.16
2024-05-09T02:18:23.350Z,102636.16
2024-05-09T02:20:51.204Z,102641.34
2024-05-09T02:23:20.040Z,102631.69
2024-05-09T02:25:47.735Z,102633.41
2024-05-09T02:28:15.410Z,102631.69
2024-05-09T02:30:43.059Z,102635.22
2024-05-09T02:33:12.976Z,102636.03
2024-05-09T02:35:43.851Z,102635.09
2024-05-09T02:38:12.620Z,102634.97
2024-05-09T02:40:40.870Z,102628.78
2024-05-09T02:43:10.642Z,102631.34
2024-05-09T02:45:40.425Z,102631.28
2024-05-09T02:48:13.105Z,102636.53
2024-05-09T02:50:42.066Z,102628.69
2024-05-09T02:53:14.172Z,102626.91
2024-05-09T02:55:43.019Z,102625.03
2024-05-09T02:58:11.413Z,102617.03
2024-05-09T03:00:41.938Z,102615.22
2024-05-09T03:03:13.634Z,102613.25
2024-05-09T03:05:44.876Z,102613.94
2024-05-09T03:08:13.220Z,102614.06
2024-05-09T03:10:41.323Z,102611.38
2024-05-09T03:13:15.188Z,102612.25
2024-05-09T03:15:44.789Z,102602.44
2024-05-09T03:18:13.604Z,102606.56
2024-05-09T03:20:44.256Z,102606.28
2024-05-09T03:23:12.534Z,102603.38
2024-05-09T03:25:40.499Z,102602.44
2024-05-09T03:28:08.242Z,102607.66
2024-05-09T03:30:41.228Z,102602.81
2024-05-09T03:33:13.179Z,102596.41
2024-05-09T03:35:43.198Z,102592.91
2024-05-09T03:38:10.875Z,102598.09
2024-05-09T03:40:45.570Z,102599.69
2024-05-09T03:43:13.874Z,102590.75
2024-05-09T03:45:45.195Z,102595.91
2024-05-09T03:48:13.331Z,102598.47
2024-05-09T03:50:41.797Z,102591.22
2024-05-09T03:53:14.229Z,102596.41
2024-05-09T03:55:42.409Z,102593.06
2024-05-09T03:58:10.151Z,102584.19
2024-05-09T04:00:39.621Z,102584.38
2024-05-09T04:03:11.168Z,102584.09
2024-05-09T04:05:42.522Z,102584.34
2024-05-09T04:08:11.579Z,102579.00
2024-05-09T04:10:39.452Z,102575.53
2024-05-09T04:13:07.254Z,102579.97
2024-05-09T04:15:34.975Z,102579.78
2024-05-09T04:18:03.064Z,102574.44
2024-05-09T04:20:38.081Z,102566.53
2024-05-09T04:23:11.623Z,102563.06
2024-05-09T04:25:44.737Z,102567.66
2024-05-09T04:28:13.662Z,102560.63
2024-05-09T04:30:42.228Z,102549.13
2024-05-09T04:33:12.564Z,102555.06
2024-05-09T04:35:43.445Z,102550.50
2024-05-09T04:38:12.682Z,102548.66
2024-05-09T04:40:40.459Z,102545.34
2024-05-09T04:43:15.230Z,102548.06
2024-05-09T04:45:43.158Z,102545.50
2024-05-09T04:48:11.380Z,102545.59
2024-05-09T04:50:39.990Z,102541.28
2024-05-09T04:53:09.801Z,102542.00
2024-05-09T04:55:39.619Z,102537.59
2024-05-09T04:58:10.646Z,102538.31
2024-05-09T05:00:41.758Z,102542.41
2024-05-09T05:03:14.207Z,102529.56
2024-05-09T05:05:45.473Z,102529.31
2024-05-09T05:08:19.346Z,102526.63
2024-05-09T05:10:48.864Z,102525.06
2024-05-09T05:13:20.204Z,102518.06
2024-05-09T05:15:50.456Z,102513.97
2024-05-09T05:18:18.937Z,102519.41
2024-05-09T05:20:47.499Z,102505.59
2024-05-09T05:23:16.904Z,102509.00
2024-05-09T05:25:47.955Z,102508.97
2024-05-09T05:28:17.127Z,102510.91
2024-05-09T05:30:44.876Z,102509.78
2024-05-09T05:33:14.570Z,102509.13
2024-05-09T05:35:42.718Z,102504.63
2024-05-09T05:38:11.281Z,102501.06
2024-05-09T05:40:40.228Z,102507.84
2024-05-09T05:43:10.527Z,102505.88
2024-05-09T05:45:39.336Z,102499.69
2024-05-09T05:48:08.043Z,102505.00
2024-05-09T05:50:37.921Z,102499.00
2024-05-09T05:53:08.263Z,102503.41
2024-05-09T05:55:37.899Z,102503.81
2024-05-09T05:58:05.546Z,102496.56
2024-05-09T06:00:38.433Z,102491.81
2024-05-09T06:03:09.472Z,102492.38
2024-05-09T06:05:44.009Z,102489.88
2024-05-09T06:08:12.655Z,102489.00
2024-05-09T06:10:41.493Z,102489.63
2024-05-09T06:13:13.492Z,102485.03
2024-05-09T06:15:42.699Z,102482.31
2024-05-09T06:18:12.370Z,102489.25
2024-05-09T06:20:43.229Z,102488.19
2024-05-09T06:23:13.007Z,102475.56
2024-05-09T06:25:42.199Z,102481.75
2024-05-09T06:28:10.115Z,102479.69
2024-05-09T06:30:40.631Z,102472.50
2024-05-09T06:33:13.253Z,102463.97
2024-05-09T06:35:45.447Z,102470.78
2024-05-09T06:38:13.604Z,102463.81
2024-05-09T06:40:43.910Z,102462.97
2024-05-09T06:43:17.961Z,102464.63
2024-05-09T06:45:48.720Z,102459.31
2024-05-09T06:48:20.452Z,102447.97
2024-05-09T06:50:49.187Z,102449.53
2024-05-09T06:53:20.349Z,102450.25
2024-05-09T06:55:48.315Z,102435.84
2024-05-09T06:58:16.151Z,102431.34
2024-05-09T07:00:43.961Z,102421.34
2024-05-09T07:03:16.764Z,102425.28
2024-05-09T07:05:47.365Z,102420.50
2024-05-09T07:08:16.567Z,102414.47
2024-05-09T07:10:45.142Z,102415.91
2024-05-09T07:13:14.393Z,102409.91
2024-05-09T07:15:42.682Z,102408.41
2024-05-09T07:18:12.435Z,102406.28
2024-05-09T07:20:40.777Z,102398.25
2024-05-09T07:23:12.706Z,102392.59
2024-05-09T07:25:41.899Z,102387.63
2024-05-09T07:28:14.540Z,102387.69
2024-05-09T07:30:43.363Z,102372.63
2024-05-09T07:33:23.004Z,102377.78
2024-05-09T07:35:52.441Z,102376.97
2024-05-09T07:38:20.473Z,102371.44
2024-05-09T07:40:49.370Z,102376.69
2024-05-09T07:43:17.282Z,102365.53
2024-05-09T07:45:52.307Z,102363.72
2024-05-09T07:52:38.532Z,102367.13
2024-05-09T07:53:47.477Z,102361.41
2024-05-09T07:56:20.375Z,102363.03
2024-05-09T07:58:51.348Z,102355.09
2024-05-09T08:01:20.014Z,102350.25
2024-05-09T08:03:48.279Z,102344.97
2024-05-09T08:06:16.817Z,102339.16
2024-05-09T08:08:46.861Z,102331.78
2024-05-09T08:11:15.009Z,102322.53
2024-05-09T08:13:42.703Z,102329.34
2024-05-09T08:16:10.582Z,102332.50
2024-05-09T08:18:38.607Z,102324.19
2024-05-09T08:21:06.447Z,102330.19
2024-05-09T08:23:34.292Z,102324.44
2024-05-09T08:26:02.003Z,102324.16
2024-05-09T08:28:29.813Z,102323.38
2024-05-09T08:30:59.328Z,102317.06
2024-05-09T08:33:27.821Z,102315.72
2024-05-09T08:35:55.523Z,102310.91
2024-05-09T08:38:23.216Z,102311.91
2024-05-09T08:40:51.434Z,102309.75
2024-05-09T08:43:20.395Z,102302.47
2024-05-09T08:45:49.655Z,102292.94
2024-05-09T08:48:19.774Z,102288.09
2024-05-09T08:51:10.312Z,102296.22
2024-05-09T08:53:38.034Z,102285.28
2024-05-09T08:56:09.530Z,102283.13
2024-05-09T08:58:37.936Z,102276.75
2024-05-09T09:01:06.055Z,102282.28
2024-05-09T09:03:36.857Z,102280.00
2024-05-09T09:06:14.620Z,102269.56
2024-05-09T09:08:42.546Z,102268.34
2024-05-09T09:11:11.024Z,102257.53
2024-05-09T09:13:38.853Z,102269.25
2024-05-09T09:16:07.117Z,102256.91
2024-05-09T09:18:35.084Z,102265.38
2024-05-09T09:21:03.476Z,102259.88
2024-05-09T09:23:31.272Z,102254.28
2024-05-09T09:26:00.380Z,102247.91
2024-05-09T09:28:28.317Z,102251.38
2024-05-09T09:31:03.390Z,102245.50
2024-05-09T09:33:31.926Z,102241.91
2024-05-09T09:36:02.470Z,102245.56
2024-05-09T09:38:32.637Z,102244.22
2024-05-09T09:41:01.886Z,102238.41
2024-05-09T09:43:31.828Z,102235.13
2024-05-09T09:46:02.259Z,102236.06
2024-05-09T09:48:32.389Z,102231.00
2024-05-09T09:51:00.949Z,102225.91
2024-05-09T09:53:28.921Z,102220.56
2024-05-09T09:55:57.832Z,102223.13
2024-05-09T09:58:25.802Z,102215.16
2024-05-09T10:00:54.106Z,102215.00
2024-05-09T10:03:22.936Z,102215.06
2024-05-09T10:05:54.674Z,102211.75
2024-05-09T10:08:24.024Z,102203.44
2024-05-09T10:10:52.068Z,102202.81
2024-05-09T10:13:20.227Z,102210.25
2024-05-09T10:15:54.590Z,102203.16
2024-05-09T10:18:30.152Z,102204.91
2024-05-09T10:20:59.932Z,102201.91
2024-05-09T10:23:28.618Z,102193.00
2024-05-09T10:26:01.329Z,102185.44
2024-05-09T10:28:42.955Z,102182.72
2024-05-09T10:31:17.124Z,102177.91
2024-05-09T10:34:12.586Z,102173.97
2024-05-09T10:37:19.645Z,102160.56
2024-05-09T10:40:22.842Z,102156.81
2024-05-09T10:43:20.187Z,102156.16
2024-05-09T10:45:49.371Z,102152.66
2024-05-09T10:48:17.140Z,102147.19
2024-05-09T10:50:46.214Z,102148.19
2024-05-09T10:53:14.031Z,102141.47
2024-05-09T10:55:42.089Z,102139.31
2024-05-09T10:58:18.613Z,102144.09
2024-05-09T11:00:46.418Z,102136.91
2024-05-09T11:03:14.313Z,102129.00
2024-05-09T11:05:47.572Z,102115.22
2024-05-09T11:08:16.059Z,102113.88
2024-05-09T11:10:44.951Z,102105.44
2024-05-09T11:13:12.743Z,102100.66
2024-05-09T11:15:41.643Z,102095.38
2024-05-09T11:18:25.629Z,102104.81
2024-05-09T11:20:55.878Z,102103.16
2024-05-09T11:23:30.508Z,102099.47
2024-05-09T11:25:59.461Z,102102.78
2024-05-09T11:28:28.964Z,102097.28
2024-05-09T11:31:07.913Z,102097.34
2024-05-09T11:33:44.059Z,102090.72
2024-05-09T11:36:12.215Z,102094.13
2024-05-09T11:38:40.563Z,102087.28
2024-05-09T11:41:08.554Z,102083.31
2024-05-09T11:43:36.247Z,102069.81
2024-05-09T11:46:04.359Z,102069.38
2024-05-09T11:48:32.502Z,102058.56
2024-05-09T11:51:00.555Z,102056.97
2024-05-09T11:53:28.242Z,102058.84
2024-05-09T11:55:56.019Z,102065.03
2024-05-09T11:58:23.922Z,102061.50
2024-05-09T12:00:52.022Z,102051.16
2024-05-09T12:03:20.875Z,102056.22
2024-05-09T12:05:48.771Z,102047.91
2024-05-09T12:08:16.661Z,102039.00
2024-05-09T12:10:44.765Z,102038.69
2024-05-09T12:13:15.485Z,102035.75
2024-05-09T12:15:43.473Z,102024.72
2024-05-09T12:18:11.431Z,102028.97
2024-05-09T12:20:40.252Z,102021.38
2024-05-09T12:23:10.270Z,102018.75
2024-05-09T12:25:39.995Z,102026.75
2024-05-09T12:28:08.977Z,102023.66
2024-05-09T12:30:40.129Z,102010.75
2024-05-09T12:33:13.191Z,102006.94
2024-05-09T12:35:44.394Z,102008.66
2024-05-09T12:38:15.458Z,102002.66
2024-05-09T12:40:43.593Z,102002.75
2024-05-09T12:43:12.059Z,101994.72
2024-05-09T12:45:46.377Z,101991.28
2024-05-09T12:48:14.346Z,101989.59
2024-05-09T12:50:42.321Z,101994.28
2024-05-09T12:53:10.187Z,101992.63
2024-05-09T12:55:45.095Z,101986.84
2024-05-09T12:58:24.645Z,101979.19
2024-05-09T13:00:53.008Z,101975.69
2024-05-09T13:03:21.526Z,101982.56
2024-05-09T13:05:50.867Z,101978.13
2024-05-09T13:08:18.907Z,101976.91
2024-05-09T13:10:47.202Z,101974.19
2024-05-09T13:13:15.331Z,101971.78
2024-05-09T13:15:43.196Z,101963.66
2024-05-09T13:18:10.967Z,101966.72
2024-05-09T13:20:38.704Z,101963.84
2024-05-09T13:23:08.298Z,101961.78
2024-05-09T13:25:37.868Z,101959.03
2024-05-09T13:28:07.698Z,101963.16
2024-05-09T13:30:40.453Z,101959.94
2024-05-09T13:33:11.903Z,101960.91
2024-05-09T13:35:47.555Z,101954.41
2024-05-09T13:38:20.021Z,101943.47
2024-05-09T13:40:48.543Z,101929.47
2024-05-09T13:43:17.810Z,101924.31
2024-05-09T13:45:46.024Z,101922.41
2024-05-09T13:48:14.194Z,101924.47
2024-05-09T13:50:42.151Z,101917.69
2024-05-09T13:53:09.870Z,101910.19
2024-05-09T13:55:39.273Z,101913.53
2024-05-09T13:58:08.538Z,101911.06
2024-05-09T14:00:45.901Z,101919.00
2024-05-09T14:03:18.706Z,101907.47
2024-05-09T14:05:49.782Z,101900.63
2024-05-09T14:08:20.134Z,101900.19
2024-05-09T14:10:49.160Z,101893.59
2024-05-09T14:13:17.286Z,101896.50
2024-05-09T14:15:46.620Z,101897.19
2024-05-09T14:18:14.923Z,101896.44
2024-05-09T14:20:43.400Z,101896.00
2024-05-09T14:23:11.411Z,101894.91
2024-05-09T14:25:42.587Z,101892.03
2024-05-09T14:28:13.076Z,101896.03
2024-05-09T14:30:43.530Z,101887.59
2024-05-09T14:33:11.843Z,101889.97
2024-05-09T14:35:39.906Z,101886.81
2024-05-09T14:38:08.988Z,101878.25
2024-05-09T14:40:42.296Z,101879.16
2024-05-09T14:43:13.119Z,101872.97
2024-05-09T14:45:42.120Z,101873.38
2024-05-09T14:48:10.694Z,101869.22
2024-05-09T14:50:40.408Z,101869.53
2024-05-09T14:53:10.500Z,101866.31
2024-05-09T14:55:40.311Z,101860.59
2024-05-09T14:58:10.129Z,101860.50
2024-05-09T15:00:44.755Z,101853.22
2024-05-09T15:03:16.155Z,101847.59
2024-05-09T15:05:45.078Z,101850.38
2024-05-09T15:08:12.885Z,101847.66
2024-05-09T15:10:40.786Z,101848.94
2024-05-09T15:13:10.435Z,101839.66
2024-05-09T15:15:42.966Z,101832.28
2024-05-09T15:18:11.233Z,101825.38
2024-05-09T15:20:40.688Z,101821.50
2024-05-09T15:23:08.640Z,101823.66
2024-05-09T15:25:37.162Z,101822.78
2024-05-09T15:28:07.931Z,101822.63
2024-05-09T15:30:36.690Z,101814.16
2024-05-09T15:33:05.904Z,101809.38
2024-05-09T15:35:34.928Z,101803.50
2024-05-09T15:38:03.574Z,101797.41
2024-05-09T15:40:38.471Z,101796.50
2024-05-09T15:43:10.961Z,101789.97
2024-05-09T15:45:41.108Z,101785.72
2024-05-09T15:48:10.573Z,101781.00
2024-05-09T15:50:41.362Z,101777.78
2024-05-09T15:53:12.547Z,101776.50
2024-05-09T15:55:42.396Z,101774.44
2024-05-09T15:58:10.716Z,101773.06
2024-05-09T16:00:42.194Z,101761.81
2024-05-09T16:03:13.910Z,101767.28
2024-05-09T16:05:44.596Z,101756.88
2024-05-09T16:08:13.637Z,101752.50
2024-05-09T16:10:46.275Z,101760.53
2024-05-09T16:13:15.591Z,101754.38
2024-05-09T16:15:44.086Z,101751.63
2024-05-09T16:18:12.781Z,101749.78
2024-05-09T16:20:42.505Z,101743.38
2024-05-09T16:23:12.936Z,101743.97
2024-05-09T16:25:45.435Z,101731.69
2024-05-09T16:28:13.614Z,101726.31
2024-05-09T16:30:41.577Z,101727.53
2024-05-09T16:33:11.091Z,101716.16
2024-05-09T16:35:39.621Z,101711.81
2024-05-09T16:38:07.566Z,101719.84
2024-05-09T16:40:39.945Z,101714.88
2024-05-09T16:43:10.269Z,101704.47
2024-05-09T16:45:40.727Z,101703.63
2024-05-09T16:48:09.141Z,101701.91
2024-05-09T16:50:37.360Z,101696.09
2024-05-09T16:53:06.253Z,101693.56
2024-05-09T16:55:36.067Z,101691.16
2024-05-09T16:58:05.112Z,101682.47
2024-05-09T17:00:40.352Z,101683.34
2024-05-09T17:03:14.013Z,101681.78
2024-05-09T17:05:43.846Z,101677.34
2024-05-09T17:08:12.612Z,101676.34
2024-05-09T17:10:40.448Z,101673.19
2024-05-09T17:13:08.522Z,101670.28
2024-05-09T17:15:37.532Z,101658.94
2024-05-09T17:18:07.398Z,101654.50
2024-05-09T17:20:37.704Z,101659.97
2024-05-09T17:23:15.179Z,101672.06
2024-05-09T17:25:43.612Z,101665.94
2024-05-09T17:28:11.895Z,101672.31
2024-05-09T17:30:42.160Z,101661.84
2024-05-09T17:33:12.139Z,101654.66
2024-05-09T17:35:41.346Z,101650.59
2024-05-09T17:38:09.356Z,101638.38
2024-05-09T17:40:38.570Z,101645.38
2024-05-09T17:43:09.275Z,101641.97
2024-05-09T17:45:41.689Z,101640.09
2024-05-09T17:48:11.750Z,101641.19
2024-05-09T17:50:41.253Z,101637.72
2024-05-09T17:53:10.956Z,101632.50
2024-05-09T17:55:40.372Z,101633.34
2024-05-09T17:58:09.269Z,101625.41
2024-05-09T18:00:40.328Z,101625.56
2024-05-09T18:03:12.337Z,101620.69
2024-05-09T18:05:41.743Z,101620.63
2024-05-09T18:08:10.028Z,101620.28
2024-05-09T18:10:39.829Z,101607.19
2024-05-09T18:13:09.169Z,101610.63
2024-05-09T18:15:38.188Z,101603.41
2024-05-09T18:18:06.848Z,101598.09
2024-05-09T18:20:42.214Z,101590.06
2024-05-09T18:23:16.626Z,101593.00
2024-05-09T18:25:46.732Z,101586.06
2024-05-09T18:28:15.915Z,101578.06
2024-05-09T18:30:44.136Z,101578.00
2024-05-09T18:33:12.397Z,101572.03
2024-05-09T18:35:47.044Z,101577.63
2024-05-09T18:38:14.738Z,101571.34
2024-05-09T18:40:44.898Z,101573.19
2024-05-09T18:43:15.099Z,101571.69
2024-05-09T18:45:43.063Z,101565.38
2024-05-09T18:48:11.733Z,101560.69
2024-05-09T18:50:41.205Z,101558.81
2024-05-09T18:53:11.955Z,101548.44
2024-05-09T18:55:42.053Z,101553.84
2024-05-09T18:58:09.978Z,101540.81
2024-05-09T19:00:40.349Z,101543.72
2024-05-09T19:03:13.051Z,101538.16
2024-05-09T19:05:44.199Z,101535.28
2024-05-09T19:08:15.548Z,101539.31
2024-05-09T19:10:45.785Z,101541.94
2024-05-09T19:13:14.705Z,101534.59
2024-05-09T19:15:43.989Z,101526.78
2024-05-09T19:18:13.704Z,101529.31
2024-05-09T19:20:43.031Z,101518.06
2024-05-09T19:23:11.929Z,101508.19
2024-05-09T19:25:40.037Z,101516.03
2024-05-09T19:28:08.218Z,101514.84
2024-05-09T19:30:40.444Z,101509.44
2024-05-09T19:33:13.221Z,101507.41
2024-05-09T19:35:42.881Z,101503.06
2024-05-09T19:38:11.356Z,101501.19
2024-05-09T19:40:39.215Z,101501.38
2024-05-09T19:43:07.454Z,101489.94
2024-05-09T19:45:36.274Z,101488.91
2024-05-09T19:48:06.423Z,101479.38
2024-05-09T19:50:42.616Z,101469.16
2024-05-09T19:53:13.728Z,101474.44
2024-05-09T19:55:42.461Z,101477.84
2024-05-09T19:58:12.468Z,101457.06
2024-05-09T20:00:43.130Z,101457.25
2024-05-09T20:03:14.669Z,101446.84
2024-05-09T20:05:47.130Z,101451.28
2024-05-09T20:08:15.358Z,101445.81
2024-05-09T20:10:43.800Z,101439.75
2024-05-09T20:13:13.903Z,101441.47
2024-05-09T20:15:42.065Z,101438.94
2024-05-09T20:18:10.863Z,101442.88
2024-05-09T20:20:42.497Z,101444.25
2024-05-09T20:23:12.653Z,101426.59
2024-05-09T20:25:40.872Z,101428.69
2024-05-09T20:28:09.036Z,101427.16
2024-05-09T20:30:37.321Z,101422.13
2024-05-09T20:33:07.835Z,101419.47
2024-05-09T20:35:37.587Z,101409.69
2024-05-09T20:38:05.815Z,101404.47
2024-05-09T20:40:37.531Z,101408.16
2024-05-09T20:43:10.963Z,101409.00
2024-05-09T20:45:40.043Z,101419.66
2024-05-09T20:48:09.637Z,101421.44
2024-05-09T20:50:41.025Z,101425.59
2024-05-09T20:53:14.559Z,101422.13
2024-05-09T20:55:44.944Z,101424.69
2024-05-09T20:58:13.879Z,101419.41
2024-05-09T21:00:44.687Z,101426.72
2024-05-09T21:03:17.284Z,101424.00
2024-05-09T21:05:45.982Z,101418.97
2024-05-09T21:08:14.031Z,101419.94
2024-05-09T21:10:41.991Z,101415.31
2024-05-09T21:13:09.914Z,101416.31
2024-05-09T21:15:37.729Z,101420.50
2024-05-09T21:18:05.852Z,101404.84
2024-05-09T21:20:35.006Z,101410.38
2024-05-09T21:23:38.488Z,101394.09
2024-05-09T21:26:06.942Z,101395.13
2024-05-09T21:28:34.661Z,101389.06
2024-05-09T21:31:02.399Z,101388.31
2024-05-09T21:33:34.174Z,101382.97
2024-05-09T21:36:01.900Z,101379.94
2024-05-09T21:38:32.392Z,101386.09
2024-05-09T21:41:00.863Z,101380.22
2024-05-09T21:43:31.634Z,101371.72
2024-05-09T21:46:01.982Z,101370.75
2024-05-09T21:48:33.705Z,101368.78
2024-05-09T21:51:01.465Z,101367.38
2024-05-09T21:53:30.025Z,101368.28
2024-05-09T21:55:57.896Z,101352.63
2024-05-09T21:58:25.777Z,101350.94
2024-05-09T22:00:53.620Z,101356.03
2024-05-09T22:03:21.365Z,101354.91
2024-05-09T22:05:51.654Z,101348.47
2024-05-09T22:08:22.316Z,101344.81
2024-05-09T22:10:51.809Z,101346.31
2024-05-09T22:13:22.202Z,101342.91
2024-05-09T22:15:51.803Z,101340.94
2024-05-09T22:18:19.538Z,101330.44
2024-05-09T22:20:47.439Z,101334.25
2024-05-09T22:23:15.979Z,101333.47
2024-05-09T22:25:44.086Z,101327.63
2024-05-09T22:28:14.539Z,101324.72
2024-05-09T22:30:44.075Z,101319.59
2024-05-09T22:33:12.719Z,101317.06
2024-05-09T22:35:41.147Z,101316.72
2024-05-09T22:38:09.173Z,101313.66
2024-05-09T22:40:45.606Z,101314.16
2024-05-09T22:43:21.735Z,101301.56
2024-05-09T22:45:51.543Z,101307.88
2024-05-09T22:48:19.949Z,101300.72
2024-05-09T22:50:47.681Z,101304.88
2024-05-09T22:53:21.989Z,101285.81
2024-05-09T22:55:49.689Z,101291.88
2024-05-09T22:58:17.524Z,101293.47
2024-05-09T23:00:46.837Z,101293.53
2024-05-09T23:03:18.810Z,101284.69
2024-05-09T23:05:47.690Z,101284.88
2024-05-09T23:08:18.392Z,101279.78
2024-05-09T23:10:48.900Z,101281.63
2024-05-09T23:13:16.952Z,101272.03
2024-05-09T23:15:48.337Z,101271.75
2024-05-09T23:18:19.077Z,101268.28
2024-05-09T23:20:56.014Z,101268.53
2024-05-09T23:23:26.408Z,101266.75
2024-05-09T23:25:56.956Z,101267.69
2024-05-09T23:28:24.838Z,101263.34
2024-05-09T23:30:52.554Z,101265.41
2024-05-09T23:33:20.612Z,101265.91
2024-05-09T23:35:50.663Z,101263.34
2024-05-09T23:38:23.382Z,101256.00
2024-05-09T23:40:51.616Z,101259.59
2024-05-09T23:43:22.289Z,101262.03
2024-05-09T23:45:50.713Z,101251.47
2024-05-09T23:48:21.364Z,101248.28
2024-05-09T23:50:51.750Z,101236.19
2024-05-09T23:53:23.737Z,101240.53
2024-05-09T23:55:51.459Z,101230.84
2024-05-09T23:58:22.208Z,101228.84
